الصفحة الرئيسية
METAR-TAF:

METAR-TAF

مطار :

مطار سونان الدولي

بيونغيانغ, كوريا الشمالية

دائرة عرض: 39-02N, خط طول: 125-47E, ارتفاع: 36 متر

METAR: مفقودة

زمن: 09:38 (01:08 UTC)

توقعات

تاريخ ووقت الإصدار 4ساعات و 8 دقيقة قبل الساعة 21:00UTC
التوقعات صالحة من24 الساعة 00 UTC إلى 24 الساعة 24 UTC
ريح 6 عقدة من الغرب/الجنوب الغربي
الرؤية: 8000 متر
غيوم متفرقة على ارتفاع 2000 قدم
مؤقت
من 24 الساعة 15 UTC إلى 24 الساعة 23 UTC
الرؤية: 2000 متر
غشاء

TAF: ZKPY 232100Z 2400/2424 24003MPS 8000 SCT020 TX30/2406Z TN19/2421Z TEMPO 2415/2423 2000 BR

أرصاد الطقس والتوقعات من أكثر من 4000 مطار (تقارير الطقس للمطار METAR والتنبؤ بالطقس بالمطارTAF).

المحطات المتاحة هي النقط الصفراء والحمراء على الخريطة.

حرك المؤشر فوق النقطة لمعرفة اسم المحطة.

ثم انقر لمعرفة أرصاد وتوقعات الطقس.

لتغيير الخارطة: اضغط على الأزرار الخضراء مع رمز الصليب الأسود للتكبير. على الزر الأخضر مع شرطة للتصغير، أو على الأسهم الخضراء للخرائط المجاورة.


METAR-TAF: